VTK605 UHMK-UHMM
Flight info
| Callsign | VTK605 |
|---|---|
| Flight time | N/A |
| Altitude | 18000 |
| Route | KUDUN A803 OSKON A800 TITAL |
| Aircraft | C414/L-SBDFGRY/S |
Departure
| Time | 2026-04-29 15:17 |
|---|---|
| Airport | Keperveem Airport (UHMK) |
Arrival
| Time | N/A |
|---|---|
| Airport | Sokol Airport (UHMM) |
| Time | Latitude | Longitude | Altitude | Speed | Heading |
|---|---|---|---|---|---|
| 2026-04-29 15:06 | 67.84499 | 166.13714 | 669 ft | 0 kts | 176° |
| 2026-04-29 15:11 | 67.84500 | 166.13714 | 669 ft | 0 kts | 176° |
| 2026-04-29 15:13 | 67.84499 | 166.13714 | 669 ft | 0 kts | 176° |
| 2026-04-29 15:13 | 67.84476 | 166.13842 | 669 ft | 15 kts | 81° |
| 2026-04-29 15:13 | 67.84520 | 166.14156 | 669 ft | 22 kts | 31° |
| 2026-04-29 15:13 | 67.84549 | 166.14392 | 669 ft | 12 kts | 194° |
| 2026-04-29 15:14 | 67.84498 | 166.14218 | 669 ft | 15 kts | 248° |
| 2026-04-29 15:14 | 67.84524 | 166.13974 | 673 ft | 18 kts | 330° |
| 2026-04-29 15:14 | 67.84625 | 166.13926 | 673 ft | 15 kts | 353° |
| 2026-04-29 15:14 | 67.84720 | 166.13851 | 676 ft | 15 kts | 297° |
| 2026-04-29 15:15 | 67.84721 | 166.13436 | 670 ft | 28 kts | 266° |
| 2026-04-29 15:15 | 67.84724 | 166.12870 | 674 ft | 28 kts | 249° |
| 2026-04-29 15:15 | 67.84708 | 166.12933 | 681 ft | 12 kts | 81° |
| 2026-04-29 15:15 | 67.84713 | 166.13054 | 673 ft | 1 kts | 72° |
| 2026-04-29 15:16 | 67.84722 | 166.13420 | 669 ft | 46 kts | 85° |
| 2026-04-29 15:16 | 67.84755 | 166.14714 | 674 ft | 92 kts | 87° |
| 2026-04-29 15:16 | 67.84813 | 166.16580 | 820 ft | 105 kts | 82° |
| 2026-04-29 15:16 | 67.84867 | 166.18614 | 986 ft | 116 kts | 89° |
| 2026-04-29 15:17 | 67.84892 | 166.20829 | 1151 ft | 123 kts | 88° |
| 2026-04-29 15:17 | 67.84927 | 166.23096 | 1328 ft | 126 kts | 88° |
| 2026-04-29 15:17 | 67.84964 | 166.25465 | 1518 ft | 135 kts | 88° |
| 2026-04-29 15:17 | 67.85005 | 166.28084 | 1759 ft | 149 kts | 88° |
| 2026-04-29 15:18 | 67.85048 | 166.30918 | 2014 ft | 158 kts | 88° |
| 2026-04-29 15:18 | 67.85091 | 166.33898 | 2274 ft | 165 kts | 88° |
| 2026-04-29 15:18 | 67.85137 | 166.36987 | 2535 ft | 170 kts | 88° |
| 2026-04-29 15:18 | 67.84938 | 166.39972 | 2908 ft | 161 kts | 123° |
| 2026-04-29 15:19 | 67.84041 | 166.41528 | 3280 ft | 160 kts | 171° |
| 2026-04-29 15:19 | 67.82939 | 166.41220 | 3570 ft | 162 kts | 203° |
| 2026-04-29 15:19 | 67.82096 | 166.39306 | 3876 ft | 162 kts | 233° |
| 2026-04-29 15:19 | 67.81429 | 166.36875 | 4187 ft | 163 kts | 232° |
| 2026-04-29 15:20 | 67.80723 | 166.34517 | 4490 ft | 164 kts | 230° |
| 2026-04-29 15:20 | 67.79998 | 166.32181 | 4801 ft | 164 kts | 230° |
| 2026-04-29 15:20 | 67.79268 | 166.29851 | 5081 ft | 165 kts | 230° |
| 2026-04-29 15:20 | 67.78532 | 166.27498 | 5362 ft | 167 kts | 230° |
| 2026-04-29 15:21 | 67.77794 | 166.25148 | 5656 ft | 167 kts | 230° |
| 2026-04-29 15:21 | 67.77048 | 166.22773 | 5935 ft | 168 kts | 230° |
| 2026-04-29 15:21 | 67.76298 | 166.20394 | 6210 ft | 169 kts | 230° |
| 2026-04-29 15:21 | 67.75546 | 166.18003 | 6496 ft | 169 kts | 229° |
| 2026-04-29 15:22 | 67.74793 | 166.15614 | 6761 ft | 170 kts | 229° |
| 2026-04-29 15:22 | 67.74037 | 166.13222 | 7023 ft | 170 kts | 229° |
| 2026-04-29 15:22 | 67.73279 | 166.10825 | 7288 ft | 170 kts | 229° |
| 2026-04-29 15:22 | 67.72518 | 166.08421 | 7544 ft | 172 kts | 229° |
| 2026-04-29 15:23 | 67.71751 | 166.05999 | 7801 ft | 172 kts | 229° |
| 2026-04-29 15:23 | 67.70973 | 166.03543 | 8059 ft | 173 kts | 229° |
| 2026-04-29 15:23 | 67.70206 | 166.01131 | 8312 ft | 174 kts | 229° |
| 2026-04-29 15:23 | 67.69428 | 165.98683 | 8578 ft | 174 kts | 229° |
| 2026-04-29 15:24 | 67.68649 | 165.96235 | 8844 ft | 175 kts | 229° |
| 2026-04-29 15:24 | 67.67864 | 165.93770 | 9110 ft | 176 kts | 229° |
| 2026-04-29 15:24 | 67.67341 | 165.92132 | 9288 ft | 176 kts | 229° |
| 2026-04-29 15:24 | 67.66554 | 165.89668 | 9567 ft | 176 kts | 228° |
| 2026-04-29 15:25 | 67.65769 | 165.87209 | 9838 ft | 175 kts | 228° |
| 2026-04-29 15:25 | 67.64980 | 165.84743 | 10074 ft | 176 kts | 228° |
| 2026-04-29 15:25 | 67.63930 | 165.81466 | 10382 ft | 177 kts | 228° |
| 2026-04-29 15:25 | 67.63393 | 165.79791 | 10547 ft | 178 kts | 228° |
| 2026-04-29 15:26 | 67.62594 | 165.77300 | 10788 ft | 179 kts | 228° |
| 2026-04-29 15:26 | 67.61792 | 165.74805 | 11018 ft | 180 kts | 228° |
| 2026-04-29 15:26 | 67.60983 | 165.72293 | 11263 ft | 180 kts | 228° |
| 2026-04-29 15:26 | 67.60172 | 165.69774 | 11494 ft | 181 kts | 228° |
| 2026-04-29 15:27 | 67.59355 | 165.67241 | 11728 ft | 182 kts | 228° |
| 2026-04-29 15:27 | 67.58537 | 165.64706 | 11960 ft | 183 kts | 228° |
| 2026-04-29 15:27 | 67.57714 | 165.62164 | 12200 ft | 183 kts | 228° |
| 2026-04-29 15:27 | 67.56886 | 165.59606 | 12431 ft | 184 kts | 228° |
| 2026-04-29 15:28 | 67.56053 | 165.57034 | 12654 ft | 186 kts | 228° |
| 2026-04-29 15:28 | 67.55215 | 165.54449 | 12888 ft | 186 kts | 228° |
| 2026-04-29 15:28 | 67.54385 | 165.51894 | 13120 ft | 187 kts | 228° |
| 2026-04-29 15:28 | 67.53532 | 165.49269 | 13335 ft | 188 kts | 228° |
| 2026-04-29 15:29 | 67.52682 | 165.46659 | 13562 ft | 189 kts | 228° |
| 2026-04-29 15:29 | 67.50972 | 165.41418 | 13994 ft | 190 kts | 228° |
| 2026-04-29 15:30 | 67.49247 | 165.36144 | 14393 ft | 191 kts | 228° |
| 2026-04-29 15:30 | 67.48389 | 165.33526 | 14587 ft | 192 kts | 227° |
| 2026-04-29 15:30 | 67.47520 | 165.30874 | 14788 ft | 193 kts | 227° |
| 2026-04-29 15:30 | 67.46645 | 165.28214 | 14988 ft | 193 kts | 227° |
| 2026-04-29 15:31 | 67.45768 | 165.25545 | 15182 ft | 194 kts | 227° |
| 2026-04-29 15:31 | 67.44876 | 165.22834 | 15383 ft | 195 kts | 227° |
| 2026-04-29 15:31 | 67.44004 | 165.20189 | 15582 ft | 195 kts | 227° |
| 2026-04-29 15:31 | 67.43117 | 165.17500 | 15781 ft | 196 kts | 227° |
| 2026-04-29 15:32 | 67.42226 | 165.14806 | 15971 ft | 197 kts | 227° |
| 2026-04-29 15:32 | 67.41335 | 165.12111 | 16180 ft | 196 kts | 227° |
| 2026-04-29 15:32 | 67.40444 | 165.09422 | 16384 ft | 197 kts | 227° |
| 2026-04-29 15:32 | 67.39538 | 165.06689 | 16588 ft | 197 kts | 227° |
| 2026-04-29 15:33 | 67.38641 | 165.03990 | 16781 ft | 198 kts | 227° |
| 2026-04-29 15:33 | 67.37678 | 165.01446 | 16963 ft | 198 kts | 220° |
| 2026-04-29 15:33 | 67.36647 | 164.99075 | 17150 ft | 198 kts | 220° |
| 2026-04-29 15:33 | 67.35617 | 164.96672 | 17348 ft | 199 kts | 220° |
| 2026-04-29 15:34 | 67.34589 | 164.94271 | 17548 ft | 200 kts | 220° |
| 2026-04-29 15:34 | 67.33554 | 164.91860 | 17738 ft | 200 kts | 220° |
| 2026-04-29 15:34 | 67.32515 | 164.89446 | 17927 ft | 201 kts | 220° |
| 2026-04-29 15:34 | 67.31473 | 164.87031 | 17987 ft | 207 kts | 220° |
| 2026-04-29 15:35 | 67.30369 | 164.84468 | 17981 ft | 213 kts | 220° |
| 2026-04-29 15:35 | 67.29264 | 164.81907 | 17991 ft | 218 kts | 220° |
| 2026-04-29 15:35 | 67.28127 | 164.79276 | 17985 ft | 221 kts | 220° |
| 2026-04-29 15:35 | 67.26968 | 164.76600 | 17984 ft | 224 kts | 220° |
| 2026-04-29 15:36 | 67.25801 | 164.73913 | 17987 ft | 226 kts | 220° |
| 2026-04-29 15:36 | 67.24629 | 164.71210 | 17991 ft | 226 kts | 220° |
| 2026-04-29 15:36 | 67.23454 | 164.68508 | 17987 ft | 227 kts | 220° |
| 2026-04-29 15:36 | 67.22273 | 164.65796 | 17989 ft | 227 kts | 220° |
| 2026-04-29 15:37 | 67.21087 | 164.63073 | 17992 ft | 228 kts | 220° |
| 2026-04-29 15:37 | 67.19902 | 164.60359 | 17990 ft | 228 kts | 220° |
| 2026-04-29 15:37 | 67.18714 | 164.57643 | 17985 ft | 228 kts | 220° |
| 2026-04-29 15:37 | 67.17524 | 164.54927 | 17980 ft | 229 kts | 220° |
| 2026-04-29 15:38 | 67.16332 | 164.52207 | 17967 ft | 229 kts | 220° |
| 2026-04-29 15:38 | 67.15138 | 164.49485 | 17975 ft | 229 kts | 220° |
| 2026-04-29 15:38 | 67.13948 | 164.46779 | 17971 ft | 229 kts | 220° |
| 2026-04-29 15:38 | 67.12756 | 164.44075 | 17968 ft | 229 kts | 220° |
| 2026-04-29 15:39 | 67.11562 | 164.41365 | 17971 ft | 229 kts | 220° |
| 2026-04-29 15:39 | 67.10370 | 164.38662 | 17973 ft | 229 kts | 220° |
| 2026-04-29 15:39 | 67.09173 | 164.35955 | 17971 ft | 229 kts | 220° |
| 2026-04-29 15:39 | 67.07980 | 164.33260 | 17972 ft | 229 kts | 220° |
| 2026-04-29 15:40 | 67.06785 | 164.30563 | 17974 ft | 229 kts | 220° |
| 2026-04-29 15:40 | 67.05591 | 164.27875 | 17956 ft | 228 kts | 220° |
| 2026-04-29 15:40 | 67.04403 | 164.25203 | 17955 ft | 226 kts | 220° |
| 2026-04-29 15:40 | 67.03224 | 164.22550 | 17964 ft | 225 kts | 220° |
| 2026-04-29 15:41 | 67.02051 | 164.19920 | 17952 ft | 224 kts | 220° |
| 2026-04-29 15:41 | 67.00884 | 164.17305 | 17950 ft | 223 kts | 220° |
| 2026-04-29 15:41 | 66.99714 | 164.14685 | 17949 ft | 223 kts | 220° |
| 2026-04-29 15:41 | 66.98548 | 164.12079 | 17958 ft | 222 kts | 220° |
| 2026-04-29 15:42 | 66.97384 | 164.09481 | 17952 ft | 222 kts | 220° |
| 2026-04-29 15:42 | 66.96217 | 164.06881 | 17949 ft | 222 kts | 220° |
| 2026-04-29 15:42 | 66.95053 | 164.04291 | 17955 ft | 222 kts | 220° |
| 2026-04-29 15:42 | 66.93892 | 164.01710 | 17947 ft | 222 kts | 220° |
| 2026-04-29 15:43 | 66.92728 | 163.99123 | 17950 ft | 222 kts | 220° |
| 2026-04-29 15:43 | 66.91563 | 163.96540 | 17944 ft | 222 kts | 220° |
| 2026-04-29 15:43 | 66.90397 | 163.93957 | 17944 ft | 222 kts | 220° |
| 2026-04-29 15:43 | 66.89234 | 163.91382 | 17943 ft | 222 kts | 220° |
| 2026-04-29 15:44 | 66.88069 | 163.88812 | 17945 ft | 221 kts | 220° |
| 2026-04-29 15:44 | 66.86903 | 163.86242 | 17941 ft | 221 kts | 220° |
| 2026-04-29 15:44 | 66.85737 | 163.83673 | 17941 ft | 221 kts | 220° |
| 2026-04-29 15:44 | 66.84573 | 163.81111 | 17941 ft | 221 kts | 220° |
| 2026-04-29 15:45 | 66.83410 | 163.78554 | 17946 ft | 221 kts | 220° |
| 2026-04-29 15:45 | 66.82242 | 163.75992 | 17944 ft | 221 kts | 220° |
| 2026-04-29 15:45 | 66.81093 | 163.73475 | 17943 ft | 221 kts | 220° |
| 2026-04-29 15:45 | 66.79915 | 163.70892 | 17948 ft | 221 kts | 220° |
| 2026-04-29 15:46 | 66.78765 | 163.68373 | 17941 ft | 221 kts | 220° |
| 2026-04-29 15:46 | 66.77582 | 163.65797 | 17940 ft | 221 kts | 220° |
| 2026-04-29 15:46 | 66.76418 | 163.63263 | 17940 ft | 221 kts | 220° |
| 2026-04-29 15:46 | 66.75253 | 163.60729 | 17940 ft | 220 kts | 220° |
| 2026-04-29 15:47 | 66.74090 | 163.58200 | 17945 ft | 221 kts | 220° |
| 2026-04-29 15:47 | 66.72940 | 163.55700 | 17945 ft | 221 kts | 220° |
| 2026-04-29 15:47 | 66.71758 | 163.53137 | 17943 ft | 221 kts | 220° |
| 2026-04-29 15:47 | 66.70592 | 163.50611 | 17947 ft | 221 kts | 220° |
| 2026-04-29 15:48 | 66.69422 | 163.48083 | 17949 ft | 221 kts | 220° |
| 2026-04-29 15:48 | 66.68254 | 163.45559 | 17944 ft | 221 kts | 220° |
| 2026-04-29 15:48 | 66.67084 | 163.43034 | 17946 ft | 221 kts | 220° |
| 2026-04-29 15:48 | 66.65915 | 163.40513 | 17948 ft | 221 kts | 220° |
| 2026-04-29 15:49 | 66.64740 | 163.37985 | 17956 ft | 222 kts | 220° |
| 2026-04-29 15:49 | 66.63565 | 163.35462 | 17948 ft | 222 kts | 220° |
| 2026-04-29 15:49 | 66.62388 | 163.32932 | 17948 ft | 222 kts | 220° |
| 2026-04-29 15:49 | 66.61212 | 163.30412 | 17951 ft | 222 kts | 220° |
| 2026-04-29 15:50 | 66.60033 | 163.27889 | 17940 ft | 222 kts | 220° |
| 2026-04-29 15:50 | 66.58853 | 163.25366 | 17940 ft | 223 kts | 219° |
| 2026-04-29 15:50 | 66.57673 | 163.22850 | 17941 ft | 223 kts | 219° |
| 2026-04-29 15:50 | 66.56506 | 163.20356 | 17941 ft | 223 kts | 219° |
| 2026-04-29 15:51 | 66.55311 | 163.17809 | 17947 ft | 222 kts | 219° |
| 2026-04-29 15:51 | 66.54129 | 163.15297 | 17947 ft | 222 kts | 219° |
| 2026-04-29 15:51 | 66.52964 | 163.12823 | 17947 ft | 222 kts | 219° |
| 2026-04-29 15:51 | 66.51782 | 163.10316 | 17947 ft | 222 kts | 219° |
| 2026-04-29 15:52 | 66.50603 | 163.07801 | 17944 ft | 222 kts | 220° |
| 2026-04-29 15:52 | 66.49427 | 163.05283 | 17952 ft | 222 kts | 220° |
| 2026-04-29 15:52 | 66.48248 | 163.02766 | 17956 ft | 222 kts | 220° |
| 2026-04-29 15:52 | 66.47069 | 163.00258 | 17955 ft | 222 kts | 220° |
| 2026-04-29 15:53 | 66.45890 | 162.97750 | 17953 ft | 223 kts | 219° |
| 2026-04-29 15:53 | 66.44708 | 162.95237 | 17952 ft | 223 kts | 219° |
| 2026-04-29 15:53 | 66.43524 | 162.92731 | 17959 ft | 223 kts | 219° |
| 2026-04-29 15:53 | 66.42342 | 162.90229 | 17953 ft | 223 kts | 219° |
| 2026-04-29 15:54 | 66.41161 | 162.87731 | 17955 ft | 222 kts | 219° |
| 2026-04-29 15:54 | 66.39982 | 162.85238 | 17954 ft | 222 kts | 219° |
| 2026-04-29 15:54 | 66.38801 | 162.82746 | 17954 ft | 222 kts | 219° |
| 2026-04-29 15:54 | 66.37621 | 162.80260 | 17952 ft | 222 kts | 219° |
| 2026-04-29 15:55 | 66.36437 | 162.77770 | 17960 ft | 222 kts | 219° |
| 2026-04-29 15:55 | 66.35254 | 162.75283 | 17952 ft | 222 kts | 219° |
| 2026-04-29 15:55 | 66.34073 | 162.72804 | 17953 ft | 222 kts | 219° |
| 2026-04-29 15:55 | 66.32889 | 162.70321 | 17960 ft | 222 kts | 219° |
| 2026-04-29 15:56 | 66.31704 | 162.67840 | 17964 ft | 223 kts | 219° |
| 2026-04-29 15:56 | 66.30520 | 162.65364 | 17955 ft | 222 kts | 219° |
| 2026-04-29 15:56 | 66.29335 | 162.62892 | 17959 ft | 222 kts | 219° |
| 2026-04-29 15:56 | 66.28151 | 162.60422 | 17958 ft | 222 kts | 219° |
| 2026-04-29 15:57 | 66.26966 | 162.57951 | 17956 ft | 222 kts | 219° |
| 2026-04-29 15:57 | 66.25779 | 162.55483 | 17953 ft | 222 kts | 219° |
| 2026-04-29 15:57 | 66.24595 | 162.53023 | 17956 ft | 222 kts | 219° |
| 2026-04-29 15:57 | 66.23409 | 162.50561 | 17952 ft | 222 kts | 219° |
| 2026-04-29 15:58 | 66.22221 | 162.48100 | 17956 ft | 223 kts | 219° |
| 2026-04-29 15:58 | 66.21027 | 162.45630 | 17950 ft | 224 kts | 219° |
| 2026-04-29 15:58 | 66.19831 | 162.43158 | 17959 ft | 224 kts | 219° |
| 2026-04-29 15:58 | 66.18631 | 162.40679 | 17951 ft | 224 kts | 219° |
| 2026-04-29 15:59 | 66.17433 | 162.38209 | 17951 ft | 224 kts | 219° |
| 2026-04-29 15:59 | 66.16234 | 162.35740 | 17952 ft | 224 kts | 219° |
| 2026-04-29 15:59 | 66.15033 | 162.33269 | 17955 ft | 225 kts | 219° |
| 2026-04-29 15:59 | 66.13833 | 162.30805 | 17960 ft | 224 kts | 219° |
| 2026-04-29 16:00 | 66.12630 | 162.28337 | 17967 ft | 225 kts | 219° |
| 2026-04-29 16:00 | 66.11430 | 162.25878 | 17960 ft | 225 kts | 219° |
| 2026-04-29 16:00 | 66.10617 | 162.24214 | 17960 ft | 225 kts | 219° |
| 2026-04-29 16:00 | 66.09428 | 162.21782 | 17960 ft | 225 kts | 219° |
| 2026-04-29 16:01 | 66.08207 | 162.19290 | 17962 ft | 225 kts | 219° |
| 2026-04-29 16:01 | 66.07022 | 162.16875 | 17972 ft | 225 kts | 219° |
| 2026-04-29 16:01 | 66.05817 | 162.14419 | 17965 ft | 224 kts | 219° |
| 2026-04-29 16:01 | 66.04611 | 162.11967 | 17966 ft | 224 kts | 219° |
| 2026-04-29 16:02 | 66.03408 | 162.09521 | 17961 ft | 225 kts | 219° |
| 2026-04-29 16:02 | 66.02203 | 162.07077 | 17964 ft | 225 kts | 219° |
| 2026-04-29 16:02 | 66.00996 | 162.04633 | 17965 ft | 225 kts | 219° |
| 2026-04-29 16:02 | 65.99790 | 162.02190 | 17962 ft | 225 kts | 219° |
| 2026-04-29 16:03 | 65.98584 | 161.99751 | 17961 ft | 224 kts | 219° |
| 2026-04-29 16:03 | 65.97378 | 161.97319 | 17960 ft | 224 kts | 219° |
| 2026-04-29 16:03 | 65.96171 | 161.94885 | 17965 ft | 224 kts | 219° |
| 2026-04-29 16:03 | 65.94960 | 161.92448 | 17962 ft | 225 kts | 219° |
| 2026-04-29 16:04 | 65.93755 | 161.90024 | 17962 ft | 225 kts | 219° |
| 2026-04-29 16:04 | 65.92539 | 161.87582 | 17958 ft | 225 kts | 219° |
| 2026-04-29 16:04 | 65.91329 | 161.85153 | 17969 ft | 225 kts | 219° |
| 2026-04-29 16:04 | 65.90119 | 161.82729 | 17958 ft | 225 kts | 219° |
| 2026-04-29 16:05 | 65.88909 | 161.80309 | 17964 ft | 225 kts | 219° |
| 2026-04-29 16:05 | 65.87696 | 161.77885 | 17966 ft | 225 kts | 219° |
| 2026-04-29 16:05 | 65.86483 | 161.75462 | 17964 ft | 225 kts | 219° |
| 2026-04-29 16:05 | 65.85269 | 161.73043 | 17962 ft | 225 kts | 219° |
| 2026-04-29 16:06 | 65.84053 | 161.70624 | 17966 ft | 225 kts | 219° |
| 2026-04-29 16:06 | 65.82839 | 161.68210 | 17964 ft | 225 kts | 219° |
| 2026-04-29 16:06 | 65.81621 | 161.65789 | 17965 ft | 225 kts | 219° |
| 2026-04-29 16:06 | 65.80404 | 161.63376 | 17957 ft | 225 kts | 219° |
| 2026-04-29 16:07 | 65.79204 | 161.60999 | 17953 ft | 225 kts | 219° |
| 2026-04-29 16:07 | 65.77985 | 161.58588 | 17950 ft | 226 kts | 219° |
| 2026-04-29 16:07 | 65.76764 | 161.56175 | 17952 ft | 226 kts | 219° |
| 2026-04-29 16:07 | 65.75524 | 161.53730 | 17956 ft | 227 kts | 219° |
| 2026-04-29 16:08 | 65.74316 | 161.51346 | 17949 ft | 227 kts | 219° |
| 2026-04-29 16:08 | 65.73074 | 161.48904 | 17949 ft | 227 kts | 219° |
| 2026-04-29 16:08 | 65.71846 | 161.46487 | 17952 ft | 227 kts | 219° |
| 2026-04-29 16:08 | 65.70612 | 161.44063 | 17950 ft | 228 kts | 219° |
| 2026-04-29 16:09 | 65.69382 | 161.41650 | 17955 ft | 228 kts | 219° |
| 2026-04-29 16:09 | 65.68165 | 161.39269 | 17953 ft | 228 kts | 219° |
| 2026-04-29 16:09 | 65.66932 | 161.36857 | 17948 ft | 228 kts | 219° |
| 2026-04-29 16:09 | 65.65697 | 161.34445 | 17945 ft | 228 kts | 218° |
| 2026-04-29 16:10 | 65.64463 | 161.32037 | 17942 ft | 228 kts | 218° |
| 2026-04-29 16:10 | 65.63229 | 161.29632 | 17945 ft | 228 kts | 218° |
| 2026-04-29 16:10 | 65.61992 | 161.27226 | 17948 ft | 228 kts | 218° |
| 2026-04-29 16:10 | 65.60759 | 161.24828 | 17946 ft | 228 kts | 218° |
| 2026-04-29 16:11 | 65.59522 | 161.22426 | 17937 ft | 228 kts | 218° |
| 2026-04-29 16:11 | 65.58284 | 161.20026 | 17941 ft | 228 kts | 218° |
| 2026-04-29 16:11 | 65.57052 | 161.17639 | 17944 ft | 228 kts | 218° |
| 2026-04-29 16:11 | 65.55813 | 161.15243 | 17929 ft | 227 kts | 219° |
| 2026-04-29 16:12 | 65.54576 | 161.12852 | 17930 ft | 227 kts | 219° |
| 2026-04-29 16:12 | 65.53745 | 161.11248 | 17929 ft | 227 kts | 219° |
| 2026-04-29 16:12 | 65.52106 | 161.08087 | 17934 ft | 227 kts | 218° |
| 2026-04-29 16:12 | 65.50868 | 161.05702 | 17929 ft | 227 kts | 219° |
| 2026-04-29 16:13 | 65.49634 | 161.03333 | 17935 ft | 228 kts | 218° |
| 2026-04-29 16:13 | 65.48391 | 161.00946 | 17938 ft | 228 kts | 219° |
| 2026-04-29 16:13 | 65.47153 | 160.98572 | 17930 ft | 228 kts | 218° |
| 2026-04-29 16:13 | 65.45915 | 160.96201 | 17936 ft | 228 kts | 218° |
| 2026-04-29 16:14 | 65.44674 | 160.93826 | 17933 ft | 228 kts | 218° |
| 2026-04-29 16:14 | 65.43434 | 160.91457 | 17932 ft | 228 kts | 218° |
| 2026-04-29 16:14 | 65.42194 | 160.89090 | 17935 ft | 228 kts | 218° |
| 2026-04-29 16:14 | 65.40952 | 160.86724 | 17927 ft | 227 kts | 218° |
| 2026-04-29 16:15 | 65.39712 | 160.84362 | 17932 ft | 228 kts | 218° |
| 2026-04-29 16:15 | 65.38473 | 160.82006 | 17924 ft | 228 kts | 218° |
| 2026-04-29 16:15 | 65.37230 | 160.79648 | 17931 ft | 227 kts | 218° |
| 2026-04-29 16:15 | 65.35989 | 160.77295 | 17931 ft | 227 kts | 218° |
| 2026-04-29 16:16 | 65.34748 | 160.74945 | 17926 ft | 227 kts | 218° |
| 2026-04-29 16:16 | 65.33506 | 160.72592 | 17932 ft | 228 kts | 218° |
| 2026-04-29 16:16 | 65.32257 | 160.70234 | 17925 ft | 229 kts | 218° |
| 2026-04-29 16:16 | 65.31008 | 160.67877 | 17935 ft | 229 kts | 218° |
| 2026-04-29 16:17 | 65.29756 | 160.65517 | 17927 ft | 229 kts | 218° |
| 2026-04-29 16:17 | 65.28502 | 160.63158 | 17926 ft | 229 kts | 218° |
| 2026-04-29 16:17 | 65.27246 | 160.60797 | 17936 ft | 230 kts | 218° |
| 2026-04-29 16:17 | 65.26005 | 160.58464 | 17936 ft | 230 kts | 218° |
| 2026-04-29 16:18 | 65.24748 | 160.56108 | 17935 ft | 230 kts | 218° |
| 2026-04-29 16:18 | 65.23485 | 160.53686 | 17934 ft | 230 kts | 221° |
| 2026-04-29 16:18 | 65.22256 | 160.51227 | 17928 ft | 230 kts | 219° |
| 2026-04-29 16:18 | 65.21011 | 160.48826 | 17931 ft | 231 kts | 219° |
| 2026-04-29 16:19 | 65.19769 | 160.46402 | 17930 ft | 230 kts | 219° |
| 2026-04-29 16:19 | 65.18533 | 160.43971 | 17932 ft | 231 kts | 219° |
| 2026-04-29 16:19 | 65.17293 | 160.41541 | 17932 ft | 231 kts | 219° |
| 2026-04-29 16:19 | 65.16053 | 160.39112 | 17936 ft | 231 kts | 219° |
| 2026-04-29 16:20 | 65.14808 | 160.36679 | 17930 ft | 231 kts | 219° |
| 2026-04-29 16:20 | 65.13569 | 160.34259 | 17930 ft | 231 kts | 219° |
| 2026-04-29 16:20 | 65.12330 | 160.31842 | 17931 ft | 231 kts | 219° |
| 2026-04-29 16:20 | 65.11086 | 160.29421 | 17938 ft | 231 kts | 219° |
| 2026-04-29 16:21 | 65.09845 | 160.27004 | 17939 ft | 231 kts | 219° |
| 2026-04-29 16:21 | 65.08600 | 160.24587 | 17933 ft | 231 kts | 219° |
| 2026-04-29 16:21 | 65.07356 | 160.22173 | 17938 ft | 231 kts | 219° |
| 2026-04-29 16:21 | 65.06111 | 160.19759 | 17937 ft | 231 kts | 219° |
| 2026-04-29 16:22 | 65.04865 | 160.17347 | 17941 ft | 231 kts | 219° |
| 2026-04-29 16:22 | 65.03621 | 160.14944 | 17939 ft | 231 kts | 219° |
| 2026-04-29 16:22 | 65.02375 | 160.12537 | 17938 ft | 231 kts | 219° |
| 2026-04-29 16:22 | 65.01129 | 160.10136 | 17936 ft | 231 kts | 219° |
| 2026-04-29 16:23 | 64.99881 | 160.07730 | 17942 ft | 231 kts | 219° |
| 2026-04-29 16:23 | 64.98635 | 160.05334 | 17939 ft | 231 kts | 219° |
| 2026-04-29 16:23 | 64.97387 | 160.02936 | 17939 ft | 231 kts | 219° |
| 2026-04-29 16:23 | 64.96141 | 160.00546 | 17943 ft | 231 kts | 219° |
| 2026-04-29 16:24 | 64.94893 | 159.98153 | 17940 ft | 231 kts | 219° |
| 2026-04-29 16:24 | 64.93647 | 159.95766 | 17941 ft | 231 kts | 219° |
| 2026-04-29 16:24 | 64.92399 | 159.93383 | 17942 ft | 231 kts | 219° |
| 2026-04-29 16:24 | 64.91150 | 159.90998 | 17945 ft | 231 kts | 219° |
| 2026-04-29 16:25 | 64.89901 | 159.88616 | 17937 ft | 231 kts | 219° |
| 2026-04-29 16:25 | 64.88653 | 159.86240 | 17939 ft | 231 kts | 219° |
| 2026-04-29 16:25 | 64.87399 | 159.83867 | 17940 ft | 231 kts | 219° |
| 2026-04-29 16:25 | 64.86143 | 159.81495 | 17938 ft | 232 kts | 219° |
| 2026-04-29 16:26 | 64.84886 | 159.79122 | 17947 ft | 232 kts | 219° |
| 2026-04-29 16:26 | 64.83623 | 159.76741 | 17946 ft | 232 kts | 219° |
| 2026-04-29 16:26 | 64.82360 | 159.74364 | 17946 ft | 232 kts | 219° |
| 2026-04-29 16:26 | 64.81098 | 159.71988 | 17943 ft | 233 kts | 219° |
| 2026-04-29 16:27 | 64.79835 | 159.69617 | 17940 ft | 233 kts | 219° |
| 2026-04-29 16:27 | 64.78569 | 159.67241 | 17939 ft | 233 kts | 219° |
| 2026-04-29 16:27 | 64.77302 | 159.64865 | 17951 ft | 233 kts | 219° |
| 2026-04-29 16:27 | 64.76037 | 159.62498 | 17948 ft | 233 kts | 218° |
| 2026-04-29 16:28 | 64.74773 | 159.60135 | 17943 ft | 233 kts | 218° |
| 2026-04-29 16:28 | 64.73507 | 159.57770 | 17944 ft | 233 kts | 218° |
| 2026-04-29 16:28 | 64.72240 | 159.55409 | 17946 ft | 233 kts | 218° |
| 2026-04-29 16:28 | 64.70972 | 159.53048 | 17947 ft | 233 kts | 218° |
| 2026-04-29 16:29 | 64.69705 | 159.50692 | 17950 ft | 233 kts | 218° |
| 2026-04-29 16:29 | 64.68437 | 159.48335 | 17950 ft | 233 kts | 218° |
| 2026-04-29 16:29 | 64.67167 | 159.45979 | 17945 ft | 233 kts | 218° |
| 2026-04-29 16:29 | 64.65901 | 159.43631 | 17946 ft | 233 kts | 218° |
| 2026-04-29 16:30 | 64.64633 | 159.41284 | 17944 ft | 233 kts | 218° |
| 2026-04-29 16:30 | 64.63364 | 159.38938 | 17946 ft | 233 kts | 219° |
| 2026-04-29 16:30 | 64.62089 | 159.36584 | 17948 ft | 233 kts | 218° |
| 2026-04-29 16:30 | 64.60831 | 159.34261 | 17947 ft | 234 kts | 218° |
| 2026-04-29 16:31 | 64.59555 | 159.31915 | 17957 ft | 233 kts | 218° |
| 2026-04-29 16:31 | 64.58284 | 159.29578 | 17946 ft | 233 kts | 218° |
| 2026-04-29 16:31 | 64.57013 | 159.27241 | 17954 ft | 233 kts | 218° |
| 2026-04-29 16:31 | 64.55741 | 159.24908 | 17951 ft | 233 kts | 218° |
| 2026-04-29 16:32 | 64.54469 | 159.22574 | 17949 ft | 233 kts | 218° |
| 2026-04-29 16:32 | 64.53611 | 159.21003 | 17949 ft | 233 kts | 218° |
| 2026-04-29 16:32 | 64.51926 | 159.17923 | 17952 ft | 233 kts | 218° |
| 2026-04-29 16:32 | 64.50654 | 159.15600 | 17951 ft | 232 kts | 218° |
| 2026-04-29 16:33 | 64.48113 | 159.10966 | 17955 ft | 232 kts | 218° |
| 2026-04-29 16:33 | 64.46840 | 159.08651 | 17951 ft | 233 kts | 218° |
| 2026-04-29 16:33 | 64.45568 | 159.06338 | 17953 ft | 232 kts | 218° |
| 2026-04-29 16:34 | 64.44295 | 159.04028 | 17952 ft | 233 kts | 218° |
| 2026-04-29 16:34 | 64.43019 | 159.01714 | 17957 ft | 233 kts | 218° |
| 2026-04-29 16:34 | 64.41740 | 158.99398 | 17950 ft | 233 kts | 218° |
| 2026-04-29 16:34 | 64.40461 | 158.97086 | 17954 ft | 234 kts | 218° |
| 2026-04-29 16:35 | 64.39178 | 158.94768 | 17958 ft | 234 kts | 218° |
| 2026-04-29 16:35 | 64.38311 | 158.93201 | 17960 ft | 234 kts | 218° |